Time;durP1;ratioP1;P1;durP2;ratioP2;P2;SDS_P1;SDS_P2;PMS_P1;PMS_P2;Temp;Humidity;BMP_temperature;BMP_pressure;BME280_temperature;BME280_humidity;BME280_pressure;Samples;Min_cycle;Max_cycle;Signal;HPM_P1;HPM_P2
2023/08/24 00:02:04;;;;;;;3.90;3.08;;;;;;;;;;5068094;28;21115;-66
2023/08/24 00:04:31;;;;;;;5.18;3.15;;;;;;;;;;5068823;28;20426;-66
2023/08/24 00:06:58;;;;;;;7.03;2.87;;;;;;;;;;5065811;28;20801;-65
2023/08/24 00:09:25;;;;;;;3.47;3.05;;;;;;;;;;5080854;28;20426;-65
2023/08/24 00:11:53;;;;;;;4.90;2.60;;;;;;;;;;5081132;28;20513;-64
2023/08/24 00:14:20;;;;;;;3.25;2.60;;;;;;;;;;5080050;28;20641;-64
2023/08/24 00:16:47;;;;;;;5.18;2.55;;;;;;;;;;5081001;28;20502;-64
2023/08/24 00:19:17;;;;;;;2.97;2.30;;;;;;;;;;5066124;28;20429;-64
2023/08/24 00:21:44;;;;;;;5.43;2.42;;;;;;;;;;5082581;28;20822;-65
2023/08/24 00:24:11;;;;;;;3.33;2.33;;;;;;;;;;5078156;28;20570;-64
2023/08/24 00:26:38;;;;;;;2.88;2.50;;;;;;;;;;5079213;28;20486;-64
2023/08/24 00:29:06;;;;;;;6.95;2.85;;;;;;;;;;5079858;28;20440;-64
2023/08/24 00:31:33;;;;;;;2.83;2.55;;;;;;;;;;5079355;28;20440;-64
2023/08/24 00:34:01;;;;;;;6.45;2.55;;;;;;;;;;5084009;28;20453;-65
2023/08/24 00:36:28;;;;;;;3.87;2.20;;;;;;;;;;5081359;27;20989;-64
2023/08/24 00:38:58;;;;;;;2.93;2.37;;;;;;;;;;5079410;27;20510;-64
2023/08/24 00:41:25;;;;;;;3.65;2.35;;;;;;;;;;5075341;28;20441;-63
2023/08/24 00:43:53;;;;;;;3.05;2.42;;;;;;;;;;5080579;28;20445;-64
2023/08/24 00:46:20;;;;;;;4.20;2.40;;;;;;;;;;5076537;28;20430;-64
2023/08/24 00:48:48;;;;;;;3.38;2.42;;;;;;;;;;5080407;28;20432;-65
2023/08/24 00:51:15;;;;;;;4.97;2.40;;;;;;;;;;5079241;28;22795;-64
2023/08/24 00:53:45;;;;;;;5.15;2.83;;;;;;;;;;5079715;28;20426;-65
2023/08/24 00:56:12;;;;;;;3.47;2.95;;;;;;;;;;5078310;27;21287;-65
2023/08/24 00:58:40;;;;;;;4.97;3.22;;;;;;;;;;5078036;28;21437;-64
2023/08/24 01:01:08;;;;;;;5.43;2.87;;;;;;;;;;5076722;28;20466;-64
2023/08/24 01:03:35;;;;;;;3.40;2.33;;;;;;;;;;5063516;28;20541;-64
2023/08/24 01:06:02;;;;;;;4.15;2.40;;;;;;;;;;5067958;28;20445;-64
2023/08/24 01:08:30;;;;;;;6.82;2.30;;;;;;;;;;5078294;28;20426;-65
2023/08/24 01:11:29;;;;;;;2.58;2.25;;;;;;;;;;5066844;28;20432;-65
2023/08/24 01:13:56;;;;;;;4.38;2.50;;;;;;;;;;5065057;28;20440;-66
2023/08/24 01:16:27;;;;;;;2.42;2.22;;;;;;;;;;5081974;27;20432;-66
2023/08/24 01:18:56;;;;;;;3.78;2.17;;;;;;;;;;5076595;28;20449;-65
2023/08/24 01:21:23;;;;;;;2.63;2.25;;;;;;;;;;5077794;28;20570;-66
2023/08/24 01:24:09;;;;;;;4.97;2.30;;;;;;;;;;5080018;28;20564;-66
2023/08/24 01:26:36;;;;;;;2.55;2.10;;;;;;;;;;5078012;28;20433;-65
2023/08/24 01:29:08;;;;;;;3.93;2.10;;;;;;;;;;5077129;28;20520;-65
2023/08/24 01:31:35;;;;;;;3.35;2.20;;;;;;;;;;5077734;28;20530;-66
2023/08/24 01:34:05;;;;;;;2.15;1.95;;;;;;;;;;5077778;28;20482;-65
2023/08/24 01:36:32;;;;;;;8.05;2.60;;;;;;;;;;5077898;28;20446;-64
2023/08/24 01:39:06;;;;;;;3.22;2.50;;;;;;;;;;5077403;28;20435;-64
2023/08/24 01:41:39;;;;;;;3.42;2.30;;;;;;;;;;5078686;28;20514;-65
2023/08/24 01:44:07;;;;;;;4.90;2.30;;;;;;;;;;5082485;28;20433;-64
2023/08/24 01:46:34;;;;;;;2.67;2.13;;;;;;;;;;5078232;28;20432;-64
2023/08/24 01:49:03;;;;;;;3.60;2.60;;;;;;;;;;5078096;28;20426;-65
2023/08/24 01:51:31;;;;;;;3.38;2.33;;;;;;;;;;5078191;28;20457;-65
2023/08/24 01:53:58;;;;;;;5.97;3.03;;;;;;;;;;5079589;28;20496;-65
2023/08/24 01:56:25;;;;;;;4.22;2.50;;;;;;;;;;5080334;28;21140;-65
2023/08/24 01:58:52;;;;;;;2.83;2.50;;;;;;;;;;5077231;28;20525;-64
2023/08/24 02:01:19;;;;;;;3.35;2.33;;;;;;;;;;5078915;28;20430;-64
2023/08/24 02:03:46;;;;;;;6.10;2.75;;;;;;;;;;5079407;28;21239;-64
2023/08/24 02:06:14;;;;;;;3.63;2.75;;;;;;;;;;5078474;28;20859;-64
2023/08/24 02:08:41;;;;;;;3.00;2.60;;;;;;;;;;5078916;28;20551;-64
2023/08/24 02:11:08;;;;;;;7.43;3.03;;;;;;;;;;5077877;28;20426;-65
2023/08/24 02:13:35;;;;;;;3.25;2.60;;;;;;;;;;5076542;28;20455;-65
2023/08/24 02:16:07;;;;;;;4.43;2.70;;;;;;;;;;5077044;28;20425;-64
2023/08/24 02:18:34;;;;;;;5.07;3.00;;;;;;;;;;5078514;28;20517;-64
2023/08/24 02:21:07;;;;;;;3.03;2.73;;;;;;;;;;5078014;28;20541;-64
2023/08/24 02:23:34;;;;;;;4.57;2.70;;;;;;;;;;5065098;28;20426;-64
2023/08/24 02:26:02;;;;;;;3.20;2.85;;;;;;;;;;5079118;28;20465;-64
2023/08/24 02:28:29;;;;;;;4.78;2.92;;;;;;;;;;5078806;28;21010;-65
2023/08/24 02:31:01;;;;;;;4.57;2.93;;;;;;;;;;5077455;28;20476;-65
2023/08/24 02:33:29;;;;;;;3.78;2.90;;;;;;;;;;5076330;28;20515;-65
2023/08/24 02:35:56;;;;;;;4.80;2.95;;;;;;;;;;5077230;28;20436;-65
2023/08/24 02:38:24;;;;;;;3.20;2.90;;;;;;;;;;5077351;28;21180;-64
2023/08/24 02:41:01;;;;;;;3.25;2.95;;;;;;;;;;5077214;28;20549;-64
2023/08/24 02:43:28;;;;;;;5.03;3.27;;;;;;;;;;5083145;28;20432;-63
2023/08/24 02:45:56;;;;;;;3.40;3.17;;;;;;;;;;5077788;28;20429;-65
2023/08/24 02:48:23;;;;;;;4.83;3.60;;;;;;;;;;5077544;28;20455;-65
2023/08/24 02:50:50;;;;;;;3.95;3.50;;;;;;;;;;5078032;28;20506;-65
2023/08/24 02:53:17;;;;;;;4.03;3.50;;;;;;;;;;5076369;28;20441;-64
2023/08/24 02:55:45;;;;;;;6.60;3.75;;;;;;;;;;5078155;28;20461;-64
2023/08/24 02:58:12;;;;;;;6.72;3.90;;;;;;;;;;5084069;28;20959;-64
2023/08/24 03:00:39;;;;;;;5.45;4.40;;;;;;;;;;5079815;28;20447;-64
2023/08/24 03:03:06;;;;;;;4.60;4.20;;;;;;;;;;5081900;28;20439;-63
2023/08/24 03:05:36;;;;;;;6.00;4.70;;;;;;;;;;5073298;28;20433;-64
2023/08/24 03:08:06;;;;;;;5.45;4.50;;;;;;;;;;5081158;28;20431;-63
2023/08/24 03:10:36;;;;;;;5.47;4.68;;;;;;;;;;5078848;27;20429;-66
2023/08/24 03:13:04;;;;;;;5.28;4.80;;;;;;;;;;5078267;28;20515;-63
2023/08/24 03:15:31;;;;;;;5.28;4.78;;;;;;;;;;5082426;27;20438;-64
2023/08/24 03:17:58;;;;;;;6.22;4.85;;;;;;;;;;5080424;28;20974;-64
2023/08/24 03:20:25;;;;;;;9.20;5.38;;;;;;;;;;5081003;27;20456;-64
2023/08/24 03:22:52;;;;;;;8.88;5.35;;;;;;;;;;5082472;28;20433;-65
2023/08/24 03:25:21;;;;;;;8.50;5.47;;;;;;;;;;5079432;28;20437;-64
2023/08/24 03:27:48;;;;;;;8.63;5.80;;;;;;;;;;5081538;27;20483;-64
2023/08/24 03:30:15;;;;;;;8.32;5.38;;;;;;;;;;5066718;28;20434;-64
2023/08/24 03:32:43;;;;;;;7.38;5.50;;;;;;;;;;5078802;28;20527;-63
2023/08/24 03:35:10;;;;;;;7.10;5.50;;;;;;;;;;5079834;28;20430;-64
2023/08/24 03:37:40;;;;;;;7.88;6.03;;;;;;;;;;5082959;28;20436;-64
2023/08/24 03:40:07;;;;;;;8.27;6.10;;;;;;;;;;5081647;28;20473;-64
2023/08/24 03:42:37;;;;;;;6.63;5.38;;;;;;;;;;5080618;28;20442;-64
2023/08/24 03:45:04;;;;;;;6.10;5.60;;;;;;;;;;5065446;28;20516;-63
2023/08/24 03:47:31;;;;;;;7.13;5.68;;;;;;;;;;5080113;28;20508;-63
2023/08/24 03:49:59;;;;;;;6.32;5.72;;;;;;;;;;5082105;28;20423;-66
2023/08/24 03:52:27;;;;;;;6.53;5.93;;;;;;;;;;5079220;28;20445;-63
2023/08/24 03:54:54;;;;;;;6.20;5.40;;;;;;;;;;5079446;28;20429;-65
2023/08/24 03:57:21;;;;;;;6.37;5.67;;;;;;;;;;5081548;28;20562;-63
2023/08/24 03:59:48;;;;;;;8.43;5.20;;;;;;;;;;5078962;28;20518;-63
2023/08/24 04:02:16;;;;;;;7.05;5.47;;;;;;;;;;5080421;27;20811;-64
2023/08/24 04:04:43;;;;;;;6.40;5.67;;;;;;;;;;5078049;28;20436;-63
2023/08/24 04:07:10;;;;;;;5.80;5.30;;;;;;;;;;5079661;28;20441;-65
2023/08/24 04:09:37;;;;;;;5.90;5.40;;;;;;;;;;5078455;28;20795;-64
2023/08/24 04:12:04;;;;;;;6.68;5.28;;;;;;;;;;5079019;28;21028;-64
2023/08/24 04:14:33;;;;;;;7.13;5.38;;;;;;;;;;5080790;28;20442;-64
2023/08/24 04:17:00;;;;;;;6.90;5.82;;;;;;;;;;5079963;28;20524;-65
2023/08/24 04:19:27;;;;;;;7.18;5.68;;;;;;;;;;5079932;28;20429;-65
2023/08/24 04:21:54;;;;;;;8.95;5.65;;;;;;;;;;5080045;28;20556;-64
2023/08/24 04:24:21;;;;;;;6.18;5.53;;;;;;;;;;5061323;28;20518;-64
2023/08/24 04:26:48;;;;;;;7.00;5.40;;;;;;;;;;5082134;28;20526;-64
2023/08/24 04:29:15;;;;;;;7.70;5.43;;;;;;;;;;5078739;28;20424;-65
2023/08/24 04:31:43;;;;;;;5.15;4.45;;;;;;;;;;5077626;28;20432;-65
2023/08/24 04:34:11;;;;;;;5.30;4.63;;;;;;;;;;5063259;28;20428;-64
2023/08/24 04:36:38;;;;;;;5.43;4.88;;;;;;;;;;5077744;28;22807;-65
2023/08/24 04:39:05;;;;;;;5.60;4.90;;;;;;;;;;5078518;28;20422;-64
2023/08/24 04:41:32;;;;;;;5.97;4.63;;;;;;;;;;5079662;28;20457;-65
2023/08/24 04:44:00;;;;;;;6.40;4.82;;;;;;;;;;5075355;28;20429;-65
2023/08/24 04:46:27;;;;;;;4.90;4.47;;;;;;;;;;5076117;27;20425;-64
2023/08/24 04:48:54;;;;;;;5.32;4.32;;;;;;;;;;5079662;28;20434;-66
2023/08/24 04:51:27;;;;;;;6.28;4.65;;;;;;;;;;5080012;28;20430;-65
2023/08/24 04:53:54;;;;;;;4.38;4.00;;;;;;;;;;5078394;28;20449;-65
2023/08/24 04:56:24;;;;;;;6.07;4.00;;;;;;;;;;5077576;28;20424;-64
2023/08/24 04:58:56;;;;;;;4.93;3.90;;;;;;;;;;5077015;28;20428;-64
2023/08/24 05:01:27;;;;;;;4.75;3.97;;;;;;;;;;5077154;28;20441;-64
2023/08/24 05:03:54;;;;;;;4.55;4.18;;;;;;;;;;5079128;28;20457;-65
2023/08/24 05:06:22;;;;;;;5.82;4.20;;;;;;;;;;5081065;28;20927;-64
2023/08/24 05:08:49;;;;;;;5.13;4.00;;;;;;;;;;5080265;28;20422;-65
2023/08/24 05:11:26;;;;;;;4.45;4.05;;;;;;;;;;5088397;28;20502;-65
2023/08/24 05:13:53;;;;;;;4.45;3.50;;;;;;;;;;5086342;28;20425;-64
2023/08/24 05:16:21;;;;;;;3.92;3.38;;;;;;;;;;5083993;28;20429;-64
2023/08/24 05:18:51;;;;;;;5.28;3.55;;;;;;;;;;5080471;28;20440;-63
2023/08/24 05:21:18;;;;;;;4.93;3.92;;;;;;;;;;5077278;28;20519;-64
2023/08/24 05:23:45;;;;;;;5.10;3.40;;;;;;;;;;5077990;28;20435;-62
2023/08/24 05:26:12;;;;;;;4.57;3.60;;;;;;;;;;5068407;28;20499;-62
2023/08/24 05:28:42;;;;;;;3.60;3.33;;;;;;;;;;5077438;28;21675;-62
2023/08/24 05:31:09;;;;;;;5.40;3.40;;;;;;;;;;5062381;28;20426;-61
2023/08/24 05:33:37;;;;;;;6.50;2.90;;;;;;;;;;5079203;28;21022;-63
2023/08/24 05:36:07;;;;;;;4.43;2.90;;;;;;;;;;5075271;28;20520;-62
2023/08/24 05:38:34;;;;;;;5.97;3.00;;;;;;;;;;5046890;28;20643;-63
2023/08/24 05:41:01;;;;;;;3.40;2.60;;;;;;;;;;5073722;28;20441;-62
2023/08/24 05:43:28;;;;;;;3.63;2.45;;;;;;;;;;5075407;28;20908;-63
2023/08/24 05:45:56;;;;;;;3.00;2.43;;;;;;;;;;5074113;28;20555;-62
2023/08/24 05:48:23;;;;;;;3.80;2.40;;;;;;;;;;5078339;28;20517;-62
2023/08/24 05:50:54;;;;;;;5.60;2.42;;;;;;;;;;5081035;28;20509;-63
2023/08/24 05:53:21;;;;;;;2.47;1.90;;;;;;;;;;5077831;28;20512;-63
2023/08/24 05:55:48;;;;;;;3.55;2.45;;;;;;;;;;5075976;28;20511;-63
2023/08/24 05:58:18;;;;;;;2.70;2.20;;;;;;;;;;5076679;28;20434;-63
2023/08/24 06:00:46;;;;;;;5.22;2.28;;;;;;;;;;5075430;28;20431;-63
2023/08/24 06:03:14;;;;;;;2.58;2.30;;;;;;;;;;5078721;28;20522;-63
2023/08/24 06:05:41;;;;;;;6.53;2.20;;;;;;;;;;5076935;28;20452;-64
2023/08/24 06:08:08;;;;;;;3.63;2.15;;;;;;;;;;5075082;28;20437;-64
2023/08/24 06:10:35;;;;;;;4.70;2.60;;;;;;;;;;5077030;28;20513;-66
2023/08/24 06:13:03;;;;;;;4.07;2.38;;;;;;;;;;5076114;28;21676;-65
2023/08/24 06:15:30;;;;;;;3.25;2.17;;;;;;;;;;5075694;28;20425;-65
2023/08/24 06:17:59;;;;;;;3.17;2.45;;;;;;;;;;5075329;28;20428;-65
2023/08/24 06:20:26;;;;;;;4.03;2.30;;;;;;;;;;5076631;28;20982;-65
2023/08/24 06:22:53;;;;;;;4.03;1.90;;;;;;;;;;5079011;28;20969;-64
2023/08/24 06:25:20;;;;;;;2.20;1.98;;;;;;;;;;5075870;28;20918;-65
2023/08/24 06:27:47;;;;;;;4.00;2.30;;;;;;;;;;5074585;28;20430;-64
2023/08/24 06:30:15;;;;;;;6.03;2.30;;;;;;;;;;5074708;28;20892;-64
2023/08/24 06:32:42;;;;;;;3.88;2.40;;;;;;;;;;5081280;28;20429;-63
2023/08/24 06:35:13;;;;;;;4.38;2.70;;;;;;;;;;5080543;28;20424;-63
2023/08/24 06:37:40;;;;;;;4.15;2.95;;;;;;;;;;5080936;27;20526;-64
2023/08/24 06:40:08;;;;;;;3.78;2.40;;;;;;;;;;5079375;27;20529;-63
2023/08/24 06:42:38;;;;;;;3.88;2.72;;;;;;;;;;5065395;28;20983;-63
2023/08/24 06:45:06;;;;;;;2.63;2.42;;;;;;;;;;5076643;27;21350;-63
2023/08/24 06:47:36;;;;;;;4.10;2.70;;;;;;;;;;5078705;28;20438;-63
2023/08/24 06:50:03;;;;;;;3.47;2.47;;;;;;;;;;5081838;28;20536;-63
2023/08/24 06:52:30;;;;;;;5.22;2.50;;;;;;;;;;5074485;27;21022;-63
2023/08/24 06:54:57;;;;;;;3.33;2.40;;;;;;;;;;5058877;28;20509;-63
2023/08/24 06:57:25;;;;;;;3.40;2.60;;;;;;;;;;5073615;28;20426;-62
2023/08/24 06:59:52;;;;;;;3.55;2.50;;;;;;;;;;5076838;27;20436;-63
2023/08/24 07:02:19;;;;;;;3.75;2.50;;;;;;;;;;5078211;28;20427;-63
2023/08/24 07:04:46;;;;;;;7.90;2.70;;;;;;;;;;5075069;28;20438;-64
2023/08/24 07:07:13;;;;;;;5.47;2.70;;;;;;;;;;5060489;28;20427;-66
2023/08/24 07:09:43;;;;;;;6.47;2.70;;;;;;;;;;5082824;28;20428;-64
2023/08/24 07:12:11;;;;;;;3.50;2.83;;;;;;;;;;5080279;28;20479;-63
2023/08/24 07:14:38;;;;;;;4.03;2.78;;;;;;;;;;5081530;28;20556;-64
2023/08/24 07:17:06;;;;;;;4.93;2.80;;;;;;;;;;5080588;28;20421;-64
2023/08/24 07:19:33;;;;;;;3.10;2.80;;;;;;;;;;5084186;27;20539;-64
2023/08/24 07:22:00;;;;;;;4.45;2.70;;;;;;;;;;5076790;28;20432;-63
2023/08/24 07:24:29;;;;;;;4.43;2.60;;;;;;;;;;5080769;28;20564;-63
2023/08/24 07:27:11;;;;;;;4.43;2.42;;;;;;;;;;5078664;28;20490;-63
2023/08/24 07:29:38;;;;;;;3.08;2.58;;;;;;;;;;5080000;28;20884;-63
2023/08/24 07:32:05;;;;;;;2.20;2.10;;;;;;;;;;5076582;28;20436;-63
2023/08/24 07:34:35;;;;;;;3.13;2.22;;;;;;;;;;5078921;28;20490;-63
2023/08/24 07:37:02;;;;;;;3.50;2.90;;;;;;;;;;5079051;28;20433;-63
2023/08/24 07:39:30;;;;;;;6.13;2.55;;;;;;;;;;5078473;28;20429;-63
2023/08/24 07:41:57;;;;;;;4.43;2.80;;;;;;;;;;5078474;28;21607;-63
2023/08/24 07:44:24;;;;;;;3.08;2.80;;;;;;;;;;5064374;28;20425;-63
2023/08/24 07:46:51;;;;;;;4.13;2.72;;;;;;;;;;5073063;28;20434;-64
2023/08/24 07:49:18;;;;;;;3.93;2.80;;;;;;;;;;5079623;28;20432;-64
2023/08/24 07:51:47;;;;;;;5.35;2.60;;;;;;;;;;5080769;28;20416;-63
2023/08/24 07:54:14;;;;;;;4.45;2.60;;;;;;;;;;5065119;28;22544;-63
2023/08/24 07:56:41;;;;;;;4.72;2.60;;;;;;;;;;5079785;28;20432;-62
2023/08/24 07:59:09;;;;;;;5.88;2.63;;;;;;;;;;5078839;28;20505;-63
2023/08/24 08:01:36;;;;;;;5.23;2.70;;;;;;;;;;5078406;28;20804;-63
2023/08/24 08:04:04;;;;;;;2.83;2.53;;;;;;;;;;5063681;28;21178;-64
2023/08/24 08:06:31;;;;;;;4.45;2.50;;;;;;;;;;5076445;27;21115;-63
2023/08/24 08:08:59;;;;;;;4.85;2.72;;;;;;;;;;5077532;28;20501;-63
2023/08/24 08:11:26;;;;;;;4.93;2.80;;;;;;;;;;5080238;28;20507;-62
2023/08/24 08:13:53;;;;;;;3.55;2.50;;;;;;;;;;5079446;28;20456;-64
2023/08/24 08:16:20;;;;;;;3.95;2.60;;;;;;;;;;5080426;28;20576;-64
2023/08/24 08:18:47;;;;;;;2.78;2.40;;;;;;;;;;5080066;28;20980;-64
2023/08/24 08:21:18;;;;;;;2.70;2.40;;;;;;;;;;5088529;28;20437;-63
2023/08/24 08:23:48;;;;;;;3.53;2.30;;;;;;;;;;5095299;28;20919;-64
2023/08/24 08:26:16;;;;;;;3.33;2.10;;;;;;;;;;5081737;28;20533;-63
2023/08/24 08:28:44;;;;;;;2.70;2.22;;;;;;;;;;5078457;28;20438;-65
2023/08/24 08:31:11;;;;;;;2.50;2.30;;;;;;;;;;5078360;28;20457;-65
2023/08/24 08:33:39;;;;;;;4.00;2.22;;;;;;;;;;5078430;28;20508;-63
2023/08/24 08:36:06;;;;;;;2.20;2.00;;;;;;;;;;5080331;28;20464;-64
2023/08/24 08:38:33;;;;;;;2.38;1.83;;;;;;;;;;5081672;28;20551;-63
2023/08/24 08:41:04;;;;;;;2.50;2.08;;;;;;;;;;5066475;28;20451;-62
2023/08/24 08:43:32;;;;;;;3.88;2.22;;;;;;;;;;5081532;28;20440;-62
2023/08/24 08:46:00;;;;;;;2.47;2.15;;;;;;;;;;5080207;28;20439;-63
2023/08/24 08:48:28;;;;;;;3.15;2.20;;;;;;;;;;5077680;28;20434;-64
2023/08/24 08:51:01;;;;;;;2.05;1.85;;;;;;;;;;5078092;28;20438;-63
2023/08/24 08:53:28;;;;;;;2.40;2.00;;;;;;;;;;5077205;28;20432;-62
2023/08/24 08:55:57;;;;;;;2.10;1.95;;;;;;;;;;5079853;27;20427;-62
2023/08/24 08:58:25;;;;;;;2.05;1.95;;;;;;;;;;5077896;28;20430;-62
2023/08/24 09:00:52;;;;;;;2.38;2.17;;;;;;;;;;5067083;28;21046;-63
2023/08/24 09:03:23;;;;;;;3.40;1.80;;;;;;;;;;5077159;28;20432;-63
2023/08/24 09:05:53;;;;;;;2.80;1.70;;;;;;;;;;5078437;28;20436;-62
2023/08/24 09:08:21;;;;;;;4.53;1.95;;;;;;;;;;5077419;28;20780;-64
2023/08/24 09:10:51;;;;;;;6.03;2.03;;;;;;;;;;5077081;28;20428;-65
2023/08/24 09:13:18;;;;;;;1.92;1.80;;;;;;;;;;5080352;28;20420;-65
2023/08/24 09:15:45;;;;;;;2.70;1.73;;;;;;;;;;5080217;28;20434;-65
2023/08/24 09:18:12;;;;;;;3.03;1.95;;;;;;;;;;5079327;28;20889;-65
2023/08/24 09:20:40;;;;;;;1.95;1.85;;;;;;;;;;5080759;28;20434;-65
2023/08/24 09:23:18;;;;;;;2.40;1.80;;;;;;;;;;5078929;28;20424;-65
2023/08/24 09:25:48;;;;;;;4.28;1.75;;;;;;;;;;5076459;28;21614;-64
2023/08/24 09:28:24;;;;;;;3.35;1.92;;;;;;;;;;5077668;28;20533;-64
2023/08/24 09:30:56;;;;;;;3.20;1.90;;;;;;;;;;5083105;28;20784;-63
2023/08/24 09:33:26;;;;;;;2.28;1.75;;;;;;;;;;5076748;28;21056;-63
2023/08/24 09:35:57;;;;;;;3.42;2.00;;;;;;;;;;5077623;28;20433;-65
2023/08/24 09:38:24;;;;;;;2.28;1.77;;;;;;;;;;5072846;28;20439;-63
2023/08/24 09:40:52;;;;;;;1.88;1.77;;;;;;;;;;5077377;28;20429;-63
2023/08/24 09:43:20;;;;;;;2.25;1.85;;;;;;;;;;5078196;28;20444;-64
2023/08/24 09:45:47;;;;;;;;;;;;;;;;;;4999498;28;23297;-63
2023/08/24 09:48:14;;;;;;;;;;;;;;;;;;4986635;28;24686;-63
2023/08/24 09:50:41;;;;;;;;;;;;;;;;;;4996144;28;25135;-63
2023/08/24 09:53:08;;;;;;;;;;;;;;;;;;4998818;28;29073;-63
2023/08/24 09:55:35;;;;;;;;;;;;;;;;;;4998433;28;25215;-62
2023/08/24 09:58:02;;;;;;;;;;;;;;;;;;4998303;28;29139;-61
2023/08/24 10:00:30;;;;;;;;;;;;;;;;;;4998609;28;27072;-64
2023/08/24 10:02:57;;;;;;;;;;;;;;;;;;4989055;28;25078;-63
2023/08/24 10:05:24;;;;;;;;;;;;;;;;;;4960996;28;25097;-63
2023/08/24 10:08:05;;;;;;;;;;;;;;;;;;4976122;28;29098;-63
2023/08/24 10:10:32;;;;;;;;;;;;;;;;;;4973381;28;26084;-63
2023/08/24 10:12:59;;;;;;;;;;;;;;;;;;4999974;28;25057;-62
2023/08/24 10:15:26;;;;;;;;;;;;;;;;;;4952281;28;25177;-63
2023/08/24 10:17:54;;;;;;;;;;;;;;;;;;4988935;28;27154;-63
2023/08/24 10:20:21;;;;;;;;;;;;;;;;;;4984188;28;27035;-63
2023/08/24 10:22:48;;;;;;;;;;;;;;;;;;4997632;28;25080;-63
2023/08/24 10:25:16;;;;;;;;;;;;;;;;;;5003736;28;25068;-61
2023/08/24 10:27:43;;;;;;;;;;;;;;;;;;5002203;28;25062;-62
2023/08/24 10:30:11;;;;;;;;;;;;;;;;;;4989095;28;25086;-62
2023/08/24 10:32:38;;;;;;;;;;;;;;;;;;4992691;28;28091;-62
2023/08/24 10:35:05;;;;;;;;;;;;;;;;;;5000246;28;29110;-62
2023/08/24 10:37:34;;;;;;;;;;;;;;;;;;4999279;28;27077;-62
2023/08/24 10:40:03;;;;;;;;;;;;;;;;;;4985608;28;25086;-62
2023/08/24 10:42:30;;;;;;;;;;;;;;;;;;4981231;28;26110;-62
2023/08/24 10:44:58;;;;;;;;;;;;;;;;;;4969300;28;25067;-63
2023/08/24 10:47:28;;;;;;;;;;;;;;;;;;4963619;28;27084;-62
2023/08/24 10:49:55;;;;;;;;;;;;;;;;;;4977675;28;25112;-62
2023/08/24 10:52:22;;;;;;;;;;;;;;;;;;4982327;27;27075;-63
2023/08/24 10:54:52;;;;;;;;;;;;;;;;;;4992033;28;25156;-62
2023/08/24 10:57:19;;;;;;;;;;;;;;;;;;5005686;28;25030;-62
2023/08/24 10:59:47;;;;;;;;;;;;;;;;;;5004849;28;25216;-62
2023/08/24 11:02:17;;;;;;;;;;;;;;;;;;5008756;28;26181;-62
2023/08/24 11:04:45;;;;;;;;;;;;;;;;;;5002782;28;25070;-64
2023/08/24 11:07:12;;;;;;;;;;;;;;;;;;5004915;28;26078;-62
2023/08/24 11:09:39;;;;;;;;;;;;;;;;;;5001073;28;28042;-62
2023/08/24 11:12:06;;;;;;;;;;;;;;;;;;5004153;27;28170;-63
2023/08/24 11:14:33;;;;;;;;;;;;;;;;;;4989665;28;27066;-63
2023/08/24 11:17:02;;;;;;;;;;;;;;;;;;4989207;27;25150;-63
2023/08/24 11:19:30;;;;;;;;;;;;;;;;;;4996563;27;26991;-64
2023/08/24 11:21:57;;;;;;;;;;;;;;;;;;5019459;28;29069;-61
2023/08/24 11:24:24;;;;;;;;;;;;;;;;;;4993458;27;25080;-64
2023/08/24 11:26:52;;;;;;;;;;;;;;;;;;5029533;27;25129;-63
2023/08/24 11:29:19;;;;;;;;;;;;;;;;;;5032480;27;25060;-63
2023/08/24 11:31:46;;;;;;;;;;;;;;;;;;5050788;27;25061;-63
2023/08/24 11:34:13;;;;;;;;;;;;;;;;;;5033946;27;25147;-63
2023/08/24 11:36:41;;;;;;;;;;;;;;;;;;5040655;28;25078;-64
2023/08/24 11:39:08;;;;;;;;;;;;;;;;;;5034904;28;25162;-63
2023/08/24 11:41:36;;;;;;;;;;;;;;;;;;5026051;28;25156;-62
2023/08/24 11:44:06;;;;;;;;;;;;;;;;;;5022540;28;25126;-64
2023/08/24 11:46:44;;;;;;;;;;;;;;;;;;5019735;27;25069;-62
2023/08/24 11:49:12;;;;;;;;;;;;;;;;;;5041069;27;25071;-63
2023/08/24 11:51:39;;;;;;;;;;;;;;;;;;5023627;28;25053;-63
2023/08/24 11:54:09;;;;;;;;;;;;;;;;;;5044994;27;26092;-63
2023/08/24 11:56:36;;;;;;;;;;;;;;;;;;5021022;28;28075;-64
2023/08/24 11:59:03;;;;;;;;;;;;;;;;;;5021715;28;28091;-64
2023/08/24 12:01:31;;;;;;;;;;;;;;;;;;5031704;27;25153;-63
2023/08/24 12:03:59;;;;;;;;;;;;;;;;;;5033469;27;27053;-63
2023/08/24 12:06:26;;;;;;;;;;;;;;;;;;5023641;28;25164;-62
2023/08/24 12:08:53;;;;;;;;;;;;;;;;;;5033664;27;27108;-63
2023/08/24 12:11:20;;;;;;;;;;;;;;;;;;5025731;28;25206;-62
2023/08/24 12:13:51;;;;;;;;;;;;;;;;;;5026047;27;25072;-63
2023/08/24 12:16:18;;;;;;;;;;;;;;;;;;5028031;27;27110;-63
2023/08/24 12:18:45;;;;;;;;;;;;;;;;;;5016458;28;25074;-62
2023/08/24 12:21:20;;;;;;;;;;;;;;;;;;5021665;28;25160;-62
2023/08/24 12:23:47;;;;;;;;;;;;;;;;;;5025886;28;25173;-63
2023/08/24 12:26:14;;;;;;;;;;;;;;;;;;5029908;28;27082;-62
2023/08/24 12:28:42;;;;;;;;;;;;;;;;;;5042767;27;25080;-62
2023/08/24 12:31:09;;;;;;;;;;;;;;;;;;5031979;27;25069;-63
2023/08/24 12:33:36;;;;;;;;;;;;;;;;;;5032104;28;25148;-63
2023/08/24 12:36:03;;;;;;;;;;;;;;;;;;5034142;27;25076;-62
2023/08/24 12:38:31;;;;;;;;;;;;;;;;;;5023737;27;25077;-63
2023/08/24 12:40:58;;;;;;;;;;;;;;;;;;5025476;28;25060;-63
2023/08/24 12:43:26;;;;;;;;;;;;;;;;;;5018788;28;25067;-64
2023/08/24 12:45:53;;;;;;;;;;;;;;;;;;5005062;28;29058;-63
2023/08/24 12:48:20;;;;;;;;;;;;;;;;;;5001643;28;25100;-63
2023/08/24 12:50:47;;;;;;;;;;;;;;;;;;5003877;28;29260;-62
2023/08/24 12:53:14;;;;;;;;;;;;;;;;;;5007199;28;28080;-63
2023/08/24 12:55:41;;;;;;;;;;;;;;;;;;5003456;28;29122;-63
2023/08/24 12:58:09;;;;;;;;;;;;;;;;;;5002344;28;25131;-63
2023/08/24 13:00:36;;;;;;;;;;;;;;;;;;5005045;28;27087;-62
2023/08/24 13:03:03;;;;;;;;;;;;;;;;;;5005634;27;25140;-64
2023/08/24 13:05:30;;;;;;;;;;;;;;;;;;4989721;28;25084;-63
2023/08/24 13:07:58;;;;;;;;;;;;;;;;;;5003413;28;25084;-64
2023/08/24 13:10:25;;;;;;;;;;;;;;;;;;5002008;28;25087;-64
2023/08/24 13:12:53;;;;;;;2.17;1.90;;;;;;;;;;5049259;28;25118;-65
2023/08/24 13:15:20;;;;;;;3.83;1.80;;;;;;;;;;5081184;28;21061;-63
2023/08/24 13:17:47;;;;;;;2.70;1.90;;;;;;;;;;5074841;28;20432;-64
2023/08/24 13:20:16;;;;;;;2.50;2.10;;;;;;;;;;5074424;28;20507;-63
2023/08/24 13:22:43;;;;;;;3.30;2.20;;;;;;;;;;5079897;28;20476;-64
2023/08/24 13:25:13;;;;;;;3.38;2.10;;;;;;;;;;5099489;28;20424;-64
2023/08/24 13:27:40;;;;;;;4.88;2.30;;;;;;;;;;5079788;28;20440;-65
2023/08/24 13:30:08;;;;;;;3.53;2.25;;;;;;;;;;5075990;28;20424;-65
2023/08/24 13:32:35;;;;;;;3.63;2.10;;;;;;;;;;5079978;28;20434;-64
2023/08/24 13:35:05;;;;;;;2.60;2.20;;;;;;;;;;5079846;28;21115;-65
2023/08/24 13:37:36;;;;;;;5.18;2.50;;;;;;;;;;5077138;28;20429;-65
2023/08/24 13:40:03;;;;;;;2.90;2.20;;;;;;;;;;5075789;28;20524;-65
2023/08/24 13:42:31;;;;;;;2.58;2.40;;;;;;;;;;5077870;28;20489;-65
2023/08/24 13:45:01;;;;;;;5.00;2.60;;;;;;;;;;5055642;28;20445;-65
2023/08/24 13:47:28;;;;;;;3.03;2.22;;;;;;;;;;5063519;28;20431;-65
2023/08/24 13:49:55;;;;;;;2.97;2.35;;;;;;;;;;5076422;28;20429;-65
2023/08/24 13:52:23;;;;;;;3.75;2.30;;;;;;;;;;5070432;28;21122;-64
2023/08/24 13:54:50;;;;;;;2.28;2.17;;;;;;;;;;5073596;28;21153;-65
2023/08/24 13:57:37;;;;;;;2.90;2.40;;;;;;;;;;5071204;28;21022;-65
2023/08/24 14:00:07;;;;;;;3.08;2.30;;;;;;;;;;5074888;28;20437;-64
2023/08/24 14:02:34;;;;;;;3.20;2.20;;;;;;;;;;5073811;28;20531;-65
2023/08/24 14:05:09;;;;;;;4.63;2.47;;;;;;;;;;5073915;28;20967;-64
2023/08/24 14:07:36;;;;;;;5.32;2.25;;;;;;;;;;5070841;28;20428;-64
2023/08/24 14:10:04;;;;;;;4.40;2.30;;;;;;;;;;5073359;28;20842;-64
2023/08/24 14:12:32;;;;;;;2.30;1.92;;;;;;;;;;5071077;28;20453;-64
2023/08/24 14:15:00;;;;;;;2.65;2.30;;;;;;;;;;5055864;28;20654;-64
2023/08/24 14:17:28;;;;;;;3.63;2.08;;;;;;;;;;5057081;28;20440;-64
2023/08/24 14:19:56;;;;;;;3.00;2.00;;;;;;;;;;5099644;28;20464;-63
2023/08/24 14:22:23;;;;;;;2.80;2.15;;;;;;;;;;5081296;28;20429;-63
2023/08/24 14:24:50;;;;;;;2.58;1.95;;;;;;;;;;5061602;28;20428;-63
2023/08/24 14:27:17;;;;;;;2.35;2.22;;;;;;;;;;5076436;28;20554;-64
2023/08/24 14:29:45;;;;;;;5.20;2.22;;;;;;;;;;5077452;28;20425;-65
2023/08/24 14:32:14;;;;;;;3.72;2.50;;;;;;;;;;5074609;28;20425;-65
2023/08/24 14:34:43;;;;;;;2.50;2.30;;;;;;;;;;5076739;28;21255;-65
2023/08/24 14:37:10;;;;;;;4.07;2.60;;;;;;;;;;5067443;28;20430;-66
2023/08/24 14:39:37;;;;;;;4.00;2.30;;;;;;;;;;5078981;28;20429;-66
2023/08/24 14:42:06;;;;;;;3.83;2.72;;;;;;;;;;5075595;28;20579;-65
2023/08/24 14:44:36;;;;;;;7.68;2.40;;;;;;;;;;5077333;28;20516;-65
2023/08/24 14:47:03;;;;;;;2.72;2.53;;;;;;;;;;5059635;28;20447;-65
2023/08/24 14:49:31;;;;;;;10.55;2.85;;;;;;;;;;5077393;28;20511;-65
2023/08/24 14:52:01;;;;;;;17.77;3.07;;;;;;;;;;5077461;28;20422;-65
2023/08/24 14:54:28;;;;;;;11.93;2.78;;;;;;;;;;5079545;28;20434;-65
2023/08/24 14:56:56;;;;;;;12.00;2.42;;;;;;;;;;5078808;27;20465;-63
2023/08/24 14:59:23;;;;;;;4.73;2.40;;;;;;;;;;5079229;28;20432;-63
2023/08/24 15:01:51;;;;;;;4.03;2.53;;;;;;;;;;5080822;28;20578;-65
2023/08/24 15:04:18;;;;;;;3.23;2.63;;;;;;;;;;5080899;28;20434;-64
2023/08/24 15:06:45;;;;;;;3.53;2.70;;;;;;;;;;5063395;28;20482;-64
2023/08/24 15:09:13;;;;;;;4.45;2.45;;;;;;;;;;5078164;28;20520;-65
2023/08/24 15:11:40;;;;;;;3.37;2.40;;;;;;;;;;5082149;28;20516;-65
2023/08/24 15:14:07;;;;;;;2.65;2.50;;;;;;;;;;5080602;28;20483;-64